Convent, Louisiana
Current Conditions -  °F | °C
As of 8:35 AM on Wednesday 26 Nov 2014 (Local Time) from KL38 Reporting Station
Clear Clear  
Wind Chill: 45°   Ceiling: Unl
Heat Index: 47°   Visibility: 10mi
Dew Point: 41°   Wind: 5mph
Humidity: 79%   Direction: 160°SSE
Pressure: 30.28"   Gusts: NA
Location:  30.02°N, 90.83°W
Report Text: KL38 261435Z AUTO 16004KT 10SM CLR 08/05 A3028 RMK AO2 T00830048
Loading
Personal Weather Stations






























Interactive Weather Map New forecast layout! Learn more

10-Day Weather Forecast

Advertisements
Track Severe Weather on mobile